sensor_id;sensor_type;location;lat;lon;timestamp;P1;durP1;ratioP1;P2;durP2;ratioP2
10719;SDS011;5411;58.386;15.560;2023-02-28T00:01:54;3.60;;;2.00;;
10719;SDS011;5411;58.386;15.560;2023-02-28T00:04:23;2.17;;;1.97;;
10719;SDS011;5411;58.386;15.560;2023-02-28T00:06:52;2.63;;;1.77;;
10719;SDS011;5411;58.386;15.560;2023-02-28T00:09:23;1.53;;;1.43;;
10719;SDS011;5411;58.386;15.560;2023-02-28T00:11:51;2.03;;;1.80;;
10719;SDS011;5411;58.386;15.560;2023-02-28T00:14:19;3.20;;;1.60;;
10719;SDS011;5411;58.386;15.560;2023-02-28T00:19:32;1.43;;;1.33;;
10719;SDS011;5411;58.386;15.560;2023-02-28T00:22:00;1.63;;;1.53;;
10719;SDS011;5411;58.386;15.560;2023-02-28T00:24:28;1.60;;;1.47;;
10719;SDS011;5411;58.386;15.560;2023-02-28T00:26:57;2.17;;;1.70;;
10719;SDS011;5411;58.386;15.560;2023-02-28T00:29:25;1.43;;;1.30;;
10719;SDS011;5411;58.386;15.560;2023-02-28T00:31:53;2.00;;;1.60;;
10719;SDS011;5411;58.386;15.560;2023-02-28T00:34:23;1.93;;;1.40;;
10719;SDS011;5411;58.386;15.560;2023-02-28T00:36:51;1.57;;;1.47;;
10719;SDS011;5411;58.386;15.560;2023-02-28T00:39:20;1.93;;;1.40;;
10719;SDS011;5411;58.386;15.560;2023-02-28T00:41:48;1.73;;;1.33;;
10719;SDS011;5411;58.386;15.560;2023-02-28T00:44:17;1.40;;;1.30;;
10719;SDS011;5411;58.386;15.560;2023-02-28T00:46:47;1.37;;;1.27;;
10719;SDS011;5411;58.386;15.560;2023-02-28T00:49:16;1.33;;;0.93;;
10719;SDS011;5411;58.386;15.560;2023-02-28T00:51:46;1.83;;;1.40;;
10719;SDS011;5411;58.386;15.560;2023-02-28T00:54:16;2.00;;;1.17;;
10719;SDS011;5411;58.386;15.560;2023-02-28T00:56:45;1.50;;;1.40;;
10719;SDS011;5411;58.386;15.560;2023-02-28T00:59:13;1.50;;;1.40;;
10719;SDS011;5411;58.386;15.560;2023-02-28T01:01:43;1.57;;;1.47;;
10719;SDS011;5411;58.386;15.560;2023-02-28T01:04:12;1.40;;;1.30;;
10719;SDS011;5411;58.386;15.560;2023-02-28T01:06:42;1.30;;;1.20;;
10719;SDS011;5411;58.386;15.560;2023-02-28T01:09:12;1.93;;;1.60;;
10719;SDS011;5411;58.386;15.560;2023-02-28T01:11:41;1.57;;;1.47;;
10719;SDS011;5411;58.386;15.560;2023-02-28T01:14:11;1.77;;;1.53;;
10719;SDS011;5411;58.386;15.560;2023-02-28T01:16:41;1.30;;;1.20;;
10719;SDS011;5411;58.386;15.560;2023-02-28T01:19:10;2.00;;;1.80;;
10719;SDS011;5411;58.386;15.560;2023-02-28T01:21:38;1.50;;;1.40;;
10719;SDS011;5411;58.386;15.560;2023-02-28T01:24:07;1.73;;;1.63;;
10719;SDS011;5411;58.386;15.560;2023-02-28T01:26:36;1.57;;;1.33;;
10719;SDS011;5411;58.386;15.560;2023-02-28T01:29:05;1.43;;;1.30;;
10719;SDS011;5411;58.386;15.560;2023-02-28T01:31:33;1.40;;;1.30;;
10719;SDS011;5411;58.386;15.560;2023-02-28T01:34:02;2.10;;;1.90;;
10719;SDS011;5411;58.386;15.560;2023-02-28T01:36:30;1.97;;;1.37;;
10719;SDS011;5411;58.386;15.560;2023-02-28T01:38:58;1.70;;;1.60;;
10719;SDS011;5411;58.386;15.560;2023-02-28T01:41:28;2.13;;;1.50;;
10719;SDS011;5411;58.386;15.560;2023-02-28T01:44:01;1.60;;;1.50;;
10719;SDS011;5411;58.386;15.560;2023-02-28T01:46:32;1.67;;;1.40;;
10719;SDS011;5411;58.386;15.560;2023-02-28T01:49:05;1.40;;;1.30;;
10719;SDS011;5411;58.386;15.560;2023-02-28T01:51:39;1.40;;;1.20;;
10719;SDS011;5411;58.386;15.560;2023-02-28T01:54:19;2.00;;;1.47;;
10719;SDS011;5411;58.386;15.560;2023-02-28T01:56:51;1.43;;;1.20;;
10719;SDS011;5411;58.386;15.560;2023-02-28T01:59:27;1.63;;;1.40;;
10719;SDS011;5411;58.386;15.560;2023-02-28T02:01:59;2.17;;;1.73;;
10719;SDS011;5411;58.386;15.560;2023-02-28T02:04:32;1.33;;;1.23;;
10719;SDS011;5411;58.386;15.560;2023-02-28T02:07:05;1.80;;;1.50;;
10719;SDS011;5411;58.386;15.560;2023-02-28T02:09:33;2.37;;;1.20;;
10719;SDS011;5411;58.386;15.560;2023-02-28T02:12:03;2.03;;;1.83;;
10719;SDS011;5411;58.386;15.560;2023-02-28T02:14:47;1.27;;;1.13;;
10719;SDS011;5411;58.386;15.560;2023-02-28T02:17:28;1.50;;;1.40;;
10719;SDS011;5411;58.386;15.560;2023-02-28T02:20:19;1.43;;;1.33;;
10719;SDS011;5411;58.386;15.560;2023-02-28T02:26:13;1.20;;;1.20;;
10719;SDS011;5411;58.386;15.560;2023-02-28T02:35:12;1.60;;;1.50;;
10719;SDS011;5411;58.386;15.560;2023-02-28T02:37:47;1.30;;;1.20;;
10719;SDS011;5411;58.386;15.560;2023-02-28T02:40:19;2.07;;;1.70;;
10719;SDS011;5411;58.386;15.560;2023-02-28T02:42:51;2.00;;;1.80;;
10719;SDS011;5411;58.386;15.560;2023-02-28T02:45:24;2.63;;;2.10;;
10719;SDS011;5411;58.386;15.560;2023-02-28T02:48:02;1.73;;;1.40;;
10719;SDS011;5411;58.386;15.560;2023-02-28T02:50:36;1.37;;;1.27;;
10719;SDS011;5411;58.386;15.560;2023-02-28T02:53:07;1.50;;;1.40;;
10719;SDS011;5411;58.386;15.560;2023-02-28T02:55:38;1.60;;;1.43;;
10719;SDS011;5411;58.386;15.560;2023-02-28T02:58:10;1.67;;;1.57;;
10719;SDS011;5411;58.386;15.560;2023-02-28T03:00:43;1.60;;;1.50;;
10719;SDS011;5411;58.386;15.560;2023-02-28T03:03:16;1.97;;;1.80;;
10719;SDS011;5411;58.386;15.560;2023-02-28T03:05:57;1.70;;;1.50;;
10719;SDS011;5411;58.386;15.560;2023-02-28T03:08:27;1.30;;;1.20;;
10719;SDS011;5411;58.386;15.560;2023-02-28T03:10:57;1.83;;;1.60;;
10719;SDS011;5411;58.386;15.560;2023-02-28T03:16:38;1.77;;;1.67;;
10719;SDS011;5411;58.386;15.560;2023-02-28T03:19:31;1.50;;;1.40;;
10719;SDS011;5411;58.386;15.560;2023-02-28T03:22:18;2.10;;;1.30;;
10719;SDS011;5411;58.386;15.560;2023-02-28T03:25:00;1.90;;;1.50;;
10719;SDS011;5411;58.386;15.560;2023-02-28T03:27:37;1.53;;;1.40;;
10719;SDS011;5411;58.386;15.560;2023-02-28T03:30:10;1.80;;;1.43;;
10719;SDS011;5411;58.386;15.560;2023-02-28T03:32:48;1.60;;;1.47;;
10719;SDS011;5411;58.386;15.560;2023-02-28T03:35:21;1.63;;;1.53;;
10719;SDS011;5411;58.386;15.560;2023-02-28T03:37:55;1.50;;;1.37;;
10719;SDS011;5411;58.386;15.560;2023-02-28T03:40:33;2.37;;;1.70;;
10719;SDS011;5411;58.386;15.560;2023-02-28T03:43:06;1.60;;;1.50;;
10719;SDS011;5411;58.386;15.560;2023-02-28T03:45:39;2.07;;;1.50;;
10719;SDS011;5411;58.386;15.560;2023-02-28T03:48:12;1.73;;;1.37;;
10719;SDS011;5411;58.386;15.560;2023-02-28T03:50:44;1.53;;;1.37;;
10719;SDS011;5411;58.386;15.560;2023-02-28T03:53:18;1.73;;;1.40;;
10719;SDS011;5411;58.386;15.560;2023-02-28T03:55:51;1.50;;;1.37;;
10719;SDS011;5411;58.386;15.560;2023-02-28T03:58:24;2.03;;;1.83;;
10719;SDS011;5411;58.386;15.560;2023-02-28T04:00:59;1.53;;;1.37;;
10719;SDS011;5411;58.386;15.560;2023-02-28T04:03:35;1.97;;;1.50;;
10719;SDS011;5411;58.386;15.560;2023-02-28T04:06:04;1.63;;;1.43;;
10719;SDS011;5411;58.386;15.560;2023-02-28T04:08:37;3.70;;;1.93;;
10719;SDS011;5411;58.386;15.560;2023-02-28T04:11:06;3.13;;;1.80;;
10719;SDS011;5411;58.386;15.560;2023-02-28T04:13:50;1.67;;;1.57;;
10719;SDS011;5411;58.386;15.560;2023-02-28T04:16:24;2.60;;;1.53;;
10719;SDS011;5411;58.386;15.560;2023-02-28T04:19:01;2.70;;;1.50;;
10719;SDS011;5411;58.386;15.560;2023-02-28T04:21:32;1.70;;;1.60;;
10719;SDS011;5411;58.386;15.560;2023-02-28T04:24:04;1.30;;;1.20;;
10719;SDS011;5411;58.386;15.560;2023-02-28T04:26:36;2.40;;;2.00;;
10719;SDS011;5411;58.386;15.560;2023-02-28T04:29:05;1.70;;;1.53;;
10719;SDS011;5411;58.386;15.560;2023-02-28T04:31:34;2.10;;;2.00;;
10719;SDS011;5411;58.386;15.560;2023-02-28T04:34:03;2.03;;;1.67;;
10719;SDS011;5411;58.386;15.560;2023-02-28T04:36:31;1.90;;;1.40;;
10719;SDS011;5411;58.386;15.560;2023-02-28T04:39:00;1.70;;;1.60;;
10719;SDS011;5411;58.386;15.560;2023-02-28T04:41:30;1.60;;;1.50;;
10719;SDS011;5411;58.386;15.560;2023-02-28T04:43:59;1.80;;;1.47;;
10719;SDS011;5411;58.386;15.560;2023-02-28T04:46:27;1.83;;;1.33;;
10719;SDS011;5411;58.386;15.560;2023-02-28T04:48:56;2.10;;;1.27;;
10719;SDS011;5411;58.386;15.560;2023-02-28T04:51:25;2.57;;;1.50;;
10719;SDS011;5411;58.386;15.560;2023-02-28T04:53:54;1.50;;;1.40;;
10719;SDS011;5411;58.386;15.560;2023-02-28T04:56:23;1.70;;;1.50;;
10719;SDS011;5411;58.386;15.560;2023-02-28T04:58:53;2.07;;;1.57;;
10719;SDS011;5411;58.386;15.560;2023-02-28T05:01:22;2.50;;;1.50;;
10719;SDS011;5411;58.386;15.560;2023-02-28T05:03:53;1.40;;;1.30;;
10719;SDS011;5411;58.386;15.560;2023-02-28T05:06:23;1.43;;;1.33;;
10719;SDS011;5411;58.386;15.560;2023-02-28T05:08:54;1.57;;;1.13;;
10719;SDS011;5411;58.386;15.560;2023-02-28T05:11:23;2.00;;;1.40;;
10719;SDS011;5411;58.386;15.560;2023-02-28T05:13:55;1.37;;;1.27;;
10719;SDS011;5411;58.386;15.560;2023-02-28T05:16:23;1.43;;;1.33;;
10719;SDS011;5411;58.386;15.560;2023-02-28T05:18:52;1.40;;;1.20;;
10719;SDS011;5411;58.386;15.560;2023-02-28T05:21:27;1.67;;;1.40;;
10719;SDS011;5411;58.386;15.560;2023-02-28T05:23:58;1.60;;;1.50;;
10719;SDS011;5411;58.386;15.560;2023-02-28T05:26:28;1.67;;;1.27;;
10719;SDS011;5411;58.386;15.560;2023-02-28T05:28:59;1.87;;;1.63;;
10719;SDS011;5411;58.386;15.560;2023-02-28T05:31:27;1.50;;;1.40;;
10719;SDS011;5411;58.386;15.560;2023-02-28T05:33:56;1.40;;;1.30;;
10719;SDS011;5411;58.386;15.560;2023-02-28T05:36:24;2.13;;;1.60;;
10719;SDS011;5411;58.386;15.560;2023-02-28T05:38:52;1.60;;;1.50;;
10719;SDS011;5411;58.386;15.560;2023-02-28T05:41:20;2.23;;;1.50;;
10719;SDS011;5411;58.386;15.560;2023-02-28T05:43:49;2.50;;;1.43;;
10719;SDS011;5411;58.386;15.560;2023-02-28T05:46:19;1.70;;;1.40;;
10719;SDS011;5411;58.386;15.560;2023-02-28T05:48:47;1.40;;;1.13;;
10719;SDS011;5411;58.386;15.560;2023-02-28T05:51:17;1.77;;;1.63;;
10719;SDS011;5411;58.386;15.560;2023-02-28T05:53:45;1.87;;;1.30;;
10719;SDS011;5411;58.386;15.560;2023-02-28T05:56:14;1.33;;;1.23;;
10719;SDS011;5411;58.386;15.560;2023-02-28T05:58:43;2.27;;;1.70;;
10719;SDS011;5411;58.386;15.560;2023-02-28T06:01:24;1.90;;;1.57;;
10719;SDS011;5411;58.386;15.560;2023-02-28T06:03:59;1.97;;;1.50;;
10719;SDS011;5411;58.386;15.560;2023-02-28T06:06:28;1.50;;;1.40;;
10719;SDS011;5411;58.386;15.560;2023-02-28T06:08:57;1.30;;;1.20;;
10719;SDS011;5411;58.386;15.560;2023-02-28T06:11:25;2.13;;;1.73;;
10719;SDS011;5411;58.386;15.560;2023-02-28T06:13:55;1.73;;;1.53;;
10719;SDS011;5411;58.386;15.560;2023-02-28T06:16:26;1.50;;;1.40;;
10719;SDS011;5411;58.386;15.560;2023-02-28T06:18:56;1.67;;;1.57;;
10719;SDS011;5411;58.386;15.560;2023-02-28T06:21:25;3.10;;;1.50;;
10719;SDS011;5411;58.386;15.560;2023-02-28T06:23:55;1.53;;;1.40;;
10719;SDS011;5411;58.386;15.560;2023-02-28T06:26:24;1.67;;;1.33;;
10719;SDS011;5411;58.386;15.560;2023-02-28T06:28:52;1.57;;;1.40;;
10719;SDS011;5411;58.386;15.560;2023-02-28T06:31:21;1.67;;;1.57;;
10719;SDS011;5411;58.386;15.560;2023-02-28T06:33:53;1.50;;;1.40;;
10719;SDS011;5411;58.386;15.560;2023-02-28T06:36:22;5.90;;;2.27;;
10719;SDS011;5411;58.386;15.560;2023-02-28T06:38:50;1.60;;;1.50;;
10719;SDS011;5411;58.386;15.560;2023-02-28T06:41:21;1.60;;;1.50;;
10719;SDS011;5411;58.386;15.560;2023-02-28T06:43:51;1.70;;;1.47;;
10719;SDS011;5411;58.386;15.560;2023-02-28T06:46:20;1.53;;;1.43;;
10719;SDS011;5411;58.386;15.560;2023-02-28T06:48:48;1.87;;;1.47;;
10719;SDS011;5411;58.386;15.560;2023-02-28T06:51:19;3.13;;;1.70;;
10719;SDS011;5411;58.386;15.560;2023-02-28T06:53:48;1.57;;;1.47;;
10719;SDS011;5411;58.386;15.560;2023-02-28T06:56:17;1.87;;;1.77;;
10719;SDS011;5411;58.386;15.560;2023-02-28T06:58:47;2.07;;;1.73;;
10719;SDS011;5411;58.386;15.560;2023-02-28T07:01:16;2.60;;;1.60;;
10719;SDS011;5411;58.386;15.560;2023-02-28T07:03:45;3.03;;;1.90;;
10719;SDS011;5411;58.386;15.560;2023-02-28T07:06:20;2.20;;;2.00;;
10719;SDS011;5411;58.386;15.560;2023-02-28T07:08:52;2.20;;;2.00;;
10719;SDS011;5411;58.386;15.560;2023-02-28T07:11:22;2.27;;;1.80;;
10719;SDS011;5411;58.386;15.560;2023-02-28T07:13:52;1.60;;;1.50;;
10719;SDS011;5411;58.386;15.560;2023-02-28T07:16:20;2.37;;;1.80;;
10719;SDS011;5411;58.386;15.560;2023-02-28T07:18:52;2.87;;;1.57;;
10719;SDS011;5411;58.386;15.560;2023-02-28T07:21:22;1.67;;;1.57;;
10719;SDS011;5411;58.386;15.560;2023-02-28T07:23:50;1.47;;;1.20;;
10719;SDS011;5411;58.386;15.560;2023-02-28T07:26:19;2.10;;;1.70;;
10719;SDS011;5411;58.386;15.560;2023-02-28T07:28:48;1.90;;;1.43;;
10719;SDS011;5411;58.386;15.560;2023-02-28T07:31:18;2.17;;;1.80;;
10719;SDS011;5411;58.386;15.560;2023-02-28T07:33:46;1.47;;;1.20;;
10719;SDS011;5411;58.386;15.560;2023-02-28T07:36:15;1.57;;;1.47;;
10719;SDS011;5411;58.386;15.560;2023-02-28T07:38:47;1.73;;;1.20;;
10719;SDS011;5411;58.386;15.560;2023-02-28T07:41:16;1.77;;;1.40;;
10719;SDS011;5411;58.386;15.560;2023-02-28T07:43:45;1.80;;;1.10;;
10719;SDS011;5411;58.386;15.560;2023-02-28T07:46:15;1.43;;;1.33;;
10719;SDS011;5411;58.386;15.560;2023-02-28T07:48:46;1.53;;;1.43;;
10719;SDS011;5411;58.386;15.560;2023-02-28T07:51:15;2.67;;;1.60;;
10719;SDS011;5411;58.386;15.560;2023-02-28T07:53:46;1.80;;;1.60;;
10719;SDS011;5411;58.386;15.560;2023-02-28T07:56:14;2.17;;;1.37;;
10719;SDS011;5411;58.386;15.560;2023-02-28T07:58:42;2.50;;;1.27;;
10719;SDS011;5411;58.386;15.560;2023-02-28T08:01:10;2.67;;;1.40;;
10719;SDS011;5411;58.386;15.560;2023-02-28T08:03:40;1.40;;;1.20;;
10719;SDS011;5411;58.386;15.560;2023-02-28T08:06:15;1.70;;;1.60;;
10719;SDS011;5411;58.386;15.560;2023-02-28T08:08:47;1.60;;;1.27;;
10719;SDS011;5411;58.386;15.560;2023-02-28T08:11:16;1.67;;;1.33;;
10719;SDS011;5411;58.386;15.560;2023-02-28T08:13:45;4.27;;;1.67;;
10719;SDS011;5411;58.386;15.560;2023-02-28T08:16:14;1.60;;;1.50;;
10719;SDS011;5411;58.386;15.560;2023-02-28T08:18:48;3.40;;;1.60;;
10719;SDS011;5411;58.386;15.560;2023-02-28T08:21:17;2.83;;;1.70;;
10719;SDS011;5411;58.386;15.560;2023-02-28T08:23:48;2.43;;;1.80;;
10719;SDS011;5411;58.386;15.560;2023-02-28T08:26:17;1.47;;;1.37;;
10719;SDS011;5411;58.386;15.560;2023-02-28T08:28:46;2.30;;;1.70;;
10719;SDS011;5411;58.386;15.560;2023-02-28T08:31:15;1.90;;;1.70;;
10719;SDS011;5411;58.386;15.560;2023-02-28T08:33:45;1.93;;;1.40;;
10719;SDS011;5411;58.386;15.560;2023-02-28T08:36:15;1.50;;;1.40;;
10719;SDS011;5411;58.386;15.560;2023-02-28T08:38:43;1.40;;;1.30;;
10719;SDS011;5411;58.386;15.560;2023-02-28T08:41:15;1.83;;;1.67;;
10719;SDS011;5411;58.386;15.560;2023-02-28T08:43:44;1.80;;;1.60;;
10719;SDS011;5411;58.386;15.560;2023-02-28T08:46:12;1.77;;;1.40;;
10719;SDS011;5411;58.386;15.560;2023-02-28T08:48:41;2.77;;;1.43;;
10719;SDS011;5411;58.386;15.560;2023-02-28T08:51:11;1.33;;;1.23;;
10719;SDS011;5411;58.386;15.560;2023-02-28T08:53:42;2.97;;;1.30;;
10719;SDS011;5411;58.386;15.560;2023-02-28T08:56:12;1.30;;;1.20;;
10719;SDS011;5411;58.386;15.560;2023-02-28T08:58:43;1.27;;;1.10;;
10719;SDS011;5411;58.386;15.560;2023-02-28T09:01:13;1.50;;;1.40;;
10719;SDS011;5411;58.386;15.560;2023-02-28T09:03:43;1.53;;;1.40;;
10719;SDS011;5411;58.386;15.560;2023-02-28T09:06:14;1.33;;;1.23;;
10719;SDS011;5411;58.386;15.560;2023-02-28T09:08:50;2.67;;;1.67;;
10719;SDS011;5411;58.386;15.560;2023-02-28T09:11:23;1.10;;;1.00;;
10719;SDS011;5411;58.386;15.560;2023-02-28T09:13:51;1.40;;;1.20;;
10719;SDS011;5411;58.386;15.560;2023-02-28T09:16:20;1.10;;;1.00;;
10719;SDS011;5411;58.386;15.560;2023-02-28T09:18:48;1.40;;;1.30;;
10719;SDS011;5411;58.386;15.560;2023-02-28T09:21:18;1.30;;;1.10;;
10719;SDS011;5411;58.386;15.560;2023-02-28T09:23:48;1.17;;;1.07;;
10719;SDS011;5411;58.386;15.560;2023-02-28T09:26:18;1.80;;;1.57;;
10719;SDS011;5411;58.386;15.560;2023-02-28T09:28:50;1.40;;;1.30;;
10719;SDS011;5411;58.386;15.560;2023-02-28T09:31:19;2.27;;;1.27;;
10719;SDS011;5411;58.386;15.560;2023-02-28T09:33:50;1.10;;;1.00;;
10719;SDS011;5411;58.386;15.560;2023-02-28T09:36:23;1.77;;;1.20;;
10719;SDS011;5411;58.386;15.560;2023-02-28T09:39:09;1.60;;;1.10;;
10719;SDS011;5411;58.386;15.560;2023-02-28T09:41:39;3.33;;;1.17;;
10719;SDS011;5411;58.386;15.560;2023-02-28T09:44:15;1.20;;;1.10;;
10719;SDS011;5411;58.386;15.560;2023-02-28T09:46:49;1.07;;;0.90;;
10719;SDS011;5411;58.386;15.560;2023-02-28T09:49:22;1.03;;;0.90;;
10719;SDS011;5411;58.386;15.560;2023-02-28T09:51:55;0.97;;;0.97;;
10719;SDS011;5411;58.386;15.560;2023-02-28T09:54:27;1.37;;;0.90;;
10719;SDS011;5411;58.386;15.560;2023-02-28T09:56:59;2.90;;;1.53;;
10719;SDS011;5411;58.386;15.560;2023-02-28T09:59:34;1.03;;;1.00;;
10719;SDS011;5411;58.386;15.560;2023-02-28T10:02:34;1.73;;;1.10;;
10719;SDS011;5411;58.386;15.560;2023-02-28T10:05:13;3.40;;;0.83;;
10719;SDS011;5411;58.386;15.560;2023-02-28T10:07:50;0.93;;;0.90;;
10719;SDS011;5411;58.386;15.560;2023-02-28T10:10:34;1.43;;;1.10;;
10719;SDS011;5411;58.386;15.560;2023-02-28T10:13:12;1.80;;;0.90;;
10719;SDS011;5411;58.386;15.560;2023-02-28T10:15:47;0.90;;;0.90;;
10719;SDS011;5411;58.386;15.560;2023-02-28T10:18:21;0.83;;;0.80;;
10719;SDS011;5411;58.386;15.560;2023-02-28T10:20:53;0.80;;;0.80;;
10719;SDS011;5411;58.386;15.560;2023-02-28T10:23:25;0.70;;;0.70;;
10719;SDS011;5411;58.386;15.560;2023-02-28T10:25:57;1.60;;;0.80;;
10719;SDS011;5411;58.386;15.560;2023-02-28T10:28:29;0.70;;;0.70;;
10719;SDS011;5411;58.386;15.560;2023-02-28T10:31:00;1.93;;;0.90;;
10719;SDS011;5411;58.386;15.560;2023-02-28T10:33:29;1.00;;;0.90;;
10719;SDS011;5411;58.386;15.560;2023-02-28T10:36:01;0.90;;;0.90;;
10719;SDS011;5411;58.386;15.560;2023-02-28T10:38:34;1.03;;;0.70;;
10719;SDS011;5411;58.386;15.560;2023-02-28T10:41:08;0.80;;;0.80;;
10719;SDS011;5411;58.386;15.560;2023-02-28T10:43:40;3.13;;;0.80;;
10719;SDS011;5411;58.386;15.560;2023-02-28T10:46:27;0.70;;;0.70;;
10719;SDS011;5411;58.386;15.560;2023-02-28T10:49:02;2.10;;;0.83;;
10719;SDS011;5411;58.386;15.560;2023-02-28T10:51:36;0.70;;;0.70;;
10719;SDS011;5411;58.386;15.560;2023-02-28T10:54:06;0.70;;;0.70;;
10719;SDS011;5411;58.386;15.560;2023-02-28T10:56:50;0.90;;;0.90;;
10719;SDS011;5411;58.386;15.560;2023-02-28T10:59:35;1.23;;;1.00;;
10719;SDS011;5411;58.386;15.560;2023-02-28T11:02:31;0.70;;;0.70;;
10719;SDS011;5411;58.386;15.560;2023-02-28T11:07:56;1.27;;;0.80;;
10719;SDS011;5411;58.386;15.560;2023-02-28T11:10:28;0.50;;;0.50;;
10719;SDS011;5411;58.386;15.560;2023-02-28T11:13:01;0.70;;;0.70;;
10719;SDS011;5411;58.386;15.560;2023-02-28T11:15:31;0.70;;;0.70;;
10719;SDS011;5411;58.386;15.560;2023-02-28T11:18:06;1.13;;;0.80;;
10719;SDS011;5411;58.386;15.560;2023-02-28T11:20:48;2.73;;;1.33;;
10719;SDS011;5411;58.386;15.560;2023-02-28T11:23:18;1.53;;;0.80;;
10719;SDS011;5411;58.386;15.560;2023-02-28T11:25:49;1.10;;;1.00;;
10719;SDS011;5411;58.386;15.560;2023-02-28T11:28:25;1.33;;;1.10;;
10719;SDS011;5411;58.386;15.560;2023-02-28T11:31:03;2.67;;;0.90;;
10719;SDS011;5411;58.386;15.560;2023-02-28T11:33:41;2.20;;;0.97;;
10719;SDS011;5411;58.386;15.560;2023-02-28T11:36:12;1.37;;;0.90;;
10719;SDS011;5411;58.386;15.560;2023-02-28T11:38:46;1.13;;;1.03;;
10719;SDS011;5411;58.386;15.560;2023-02-28T11:41:25;1.80;;;1.37;;
10719;SDS011;5411;58.386;15.560;2023-02-28T11:44:11;1.90;;;1.30;;
10719;SDS011;5411;58.386;15.560;2023-02-28T11:47:02;1.63;;;1.53;;
10719;SDS011;5411;58.386;15.560;2023-02-28T11:49:47;3.33;;;1.43;;
10719;SDS011;5411;58.386;15.560;2023-02-28T11:52:27;3.27;;;1.40;;
10719;SDS011;5411;58.386;15.560;2023-02-28T11:55:11;2.20;;;1.40;;
10719;SDS011;5411;58.386;15.560;2023-02-28T11:57:51;1.20;;;1.10;;
10719;SDS011;5411;58.386;15.560;2023-02-28T12:03:34;1.10;;;1.00;;
10719;SDS011;5411;58.386;15.560;2023-02-28T12:06:23;1.17;;;1.07;;
10719;SDS011;5411;58.386;15.560;2023-02-28T12:09:23;3.47;;;1.63;;
10719;SDS011;5411;58.386;15.560;2023-02-28T12:12:04;2.70;;;1.80;;
10719;SDS011;5411;58.386;15.560;2023-02-28T12:17:50;2.90;;;2.03;;
10719;SDS011;5411;58.386;15.560;2023-02-28T12:20:29;1.40;;;1.30;;
10719;SDS011;5411;58.386;15.560;2023-02-28T12:23:15;3.47;;;1.40;;
10719;SDS011;5411;58.386;15.560;2023-02-28T12:26:02;1.63;;;1.53;;
10719;SDS011;5411;58.386;15.560;2023-02-28T12:28:42;2.13;;;1.50;;
10719;SDS011;5411;58.386;15.560;2023-02-28T12:31:15;1.77;;;1.60;;
10719;SDS011;5411;58.386;15.560;2023-02-28T12:33:56;2.77;;;1.60;;
10719;SDS011;5411;58.386;15.560;2023-02-28T12:36:29;3.27;;;1.37;;
10719;SDS011;5411;58.386;15.560;2023-02-28T12:39:00;1.87;;;1.43;;
10719;SDS011;5411;58.386;15.560;2023-02-28T12:41:33;2.17;;;1.40;;
10719;SDS011;5411;58.386;15.560;2023-02-28T12:44:08;3.60;;;1.40;;
10719;SDS011;5411;58.386;15.560;2023-02-28T12:46:41;3.13;;;1.73;;
10719;SDS011;5411;58.386;15.560;2023-02-28T12:49:13;2.30;;;1.77;;
10719;SDS011;5411;58.386;15.560;2023-02-28T12:51:49;1.70;;;1.40;;
10719;SDS011;5411;58.386;15.560;2023-02-28T12:54:22;1.50;;;1.40;;
10719;SDS011;5411;58.386;15.560;2023-02-28T12:56:58;3.20;;;1.17;;
10719;SDS011;5411;58.386;15.560;2023-02-28T12:59:41;1.17;;;1.07;;
10719;SDS011;5411;58.386;15.560;2023-02-28T13:02:24;2.03;;;1.10;;
10719;SDS011;5411;58.386;15.560;2023-02-28T13:05:29;2.30;;;1.40;;
10719;SDS011;5411;58.386;15.560;2023-02-28T13:11:23;1.07;;;0.80;;
10719;SDS011;5411;58.386;15.560;2023-02-28T13:13:57;1.50;;;1.10;;
10719;SDS011;5411;58.386;15.560;2023-02-28T13:16:27;1.80;;;0.90;;
10719;SDS011;5411;58.386;15.560;2023-02-28T13:19:15;2.00;;;0.80;;
10719;SDS011;5411;58.386;15.560;2023-02-28T13:21:46;1.57;;;1.00;;
10719;SDS011;5411;58.386;15.560;2023-02-28T13:27:19;1.20;;;1.10;;
10719;SDS011;5411;58.386;15.560;2023-02-28T13:33:23;1.67;;;1.20;;
10719;SDS011;5411;58.386;15.560;2023-02-28T13:36:10;2.63;;;1.57;;
10719;SDS011;5411;58.386;15.560;2023-02-28T13:38:52;1.20;;;1.10;;
10719;SDS011;5411;58.386;15.560;2023-02-28T13:44:24;1.63;;;1.50;;
10719;SDS011;5411;58.386;15.560;2023-02-28T13:49:51;1.67;;;1.00;;
10719;SDS011;5411;58.386;15.560;2023-02-28T13:52:21;0.80;;;0.80;;
10719;SDS011;5411;58.386;15.560;2023-02-28T13:55:06;1.13;;;1.03;;
10719;SDS011;5411;58.386;15.560;2023-02-28T13:58:08;1.13;;;0.97;;
10719;SDS011;5411;58.386;15.560;2023-02-28T14:00:55;0.73;;;0.73;;
10719;SDS011;5411;58.386;15.560;2023-02-28T14:06:47;1.43;;;1.33;;
10719;SDS011;5411;58.386;15.560;2023-02-28T14:09:21;0.80;;;0.80;;
10719;SDS011;5411;58.386;15.560;2023-02-28T14:11:52;1.13;;;1.03;;
10719;SDS011;5411;58.386;15.560;2023-02-28T14:17:24;1.20;;;1.00;;
10719;SDS011;5411;58.386;15.560;2023-02-28T14:19:55;2.53;;;1.00;;
10719;SDS011;5411;58.386;15.560;2023-02-28T14:22:43;1.87;;;1.10;;
10719;SDS011;5411;58.386;15.560;2023-02-28T14:25:22;0.97;;;0.90;;
10719;SDS011;5411;58.386;15.560;2023-02-28T14:28:03;0.90;;;0.90;;
10719;SDS011;5411;58.386;15.560;2023-02-28T14:30:57;1.70;;;1.60;;
10719;SDS011;5411;58.386;15.560;2023-02-28T14:33:38;1.47;;;1.13;;
10719;SDS011;5411;58.386;15.560;2023-02-28T14:36:17;1.77;;;0.80;;
10719;SDS011;5411;58.386;15.560;2023-02-28T14:38:50;1.37;;;1.27;;
10719;SDS011;5411;58.386;15.560;2023-02-28T14:41:22;0.93;;;0.90;;
10719;SDS011;5411;58.386;15.560;2023-02-28T14:43:54;1.57;;;1.10;;
10719;SDS011;5411;58.386;15.560;2023-02-28T14:46:25;3.20;;;1.00;;
10719;SDS011;5411;58.386;15.560;2023-02-28T14:49:07;1.10;;;1.00;;
10719;SDS011;5411;58.386;15.560;2023-02-28T14:51:43;1.87;;;0.97;;
10719;SDS011;5411;58.386;15.560;2023-02-28T14:54:15;1.20;;;1.07;;
10719;SDS011;5411;58.386;15.560;2023-02-28T14:56:48;0.97;;;0.90;;
10719;SDS011;5411;58.386;15.560;2023-02-28T14:59:25;3.50;;;1.30;;
10719;SDS011;5411;58.386;15.560;2023-02-28T15:04:45;1.10;;;1.10;;
10719;SDS011;5411;58.386;15.560;2023-02-28T15:07:21;1.13;;;1.10;;
10719;SDS011;5411;58.386;15.560;2023-02-28T15:10:07;2.17;;;1.13;;
10719;SDS011;5411;58.386;15.560;2023-02-28T15:12:37;0.93;;;0.93;;
10719;SDS011;5411;58.386;15.560;2023-02-28T15:15:14;1.77;;;1.03;;
10719;SDS011;5411;58.386;15.560;2023-02-28T15:17:44;1.53;;;1.20;;
10719;SDS011;5411;58.386;15.560;2023-02-28T15:20:16;2.60;;;1.20;;
10719;SDS011;5411;58.386;15.560;2023-02-28T15:22:46;1.30;;;1.20;;
10719;SDS011;5411;58.386;15.560;2023-02-28T15:25:18;2.00;;;1.20;;
10719;SDS011;5411;58.386;15.560;2023-02-28T15:27:49;1.30;;;1.00;;
10719;SDS011;5411;58.386;15.560;2023-02-28T15:30:21;1.47;;;1.10;;
10719;SDS011;5411;58.386;15.560;2023-02-28T15:33:02;3.83;;;1.20;;
10719;SDS011;5411;58.386;15.560;2023-02-28T15:35:36;4.80;;;1.10;;
10719;SDS011;5411;58.386;15.560;2023-02-28T15:38:13;2.40;;;1.60;;
10719;SDS011;5411;58.386;15.560;2023-02-28T15:40:45;2.93;;;1.13;;
10719;SDS011;5411;58.386;15.560;2023-02-28T15:43:37;2.17;;;1.43;;
10719;SDS011;5411;58.386;15.560;2023-02-28T15:46:07;1.27;;;1.17;;
10719;SDS011;5411;58.386;15.560;2023-02-28T15:48:38;4.17;;;1.00;;
10719;SDS011;5411;58.386;15.560;2023-02-28T15:51:16;2.83;;;1.33;;
10719;SDS011;5411;58.386;15.560;2023-02-28T15:53:50;1.20;;;1.10;;
10719;SDS011;5411;58.386;15.560;2023-02-28T15:56:23;2.13;;;1.30;;
10719;SDS011;5411;58.386;15.560;2023-02-28T15:58:53;1.40;;;1.30;;
10719;SDS011;5411;58.386;15.560;2023-02-28T16:01:24;1.70;;;1.60;;
10719;SDS011;5411;58.386;15.560;2023-02-28T16:04:01;1.77;;;1.00;;
10719;SDS011;5411;58.386;15.560;2023-02-28T16:06:34;1.70;;;1.10;;
10719;SDS011;5411;58.386;15.560;2023-02-28T16:09:08;2.53;;;1.30;;
10719;SDS011;5411;58.386;15.560;2023-02-28T16:11:38;1.83;;;1.27;;
10719;SDS011;5411;58.386;15.560;2023-02-28T16:14:14;1.10;;;1.00;;